createdAt,value
2019-02-28T00:00:12.612Z,5.70
2019-02-28T00:02:42.025Z,5.33
2019-02-28T00:05:11.650Z,5.00
2019-02-28T00:07:41.149Z,5.55
2019-02-28T00:10:10.960Z,5.10
2019-02-28T00:12:40.400Z,6.08
2019-02-28T00:15:10.002Z,5.83
2019-02-28T00:17:43.598Z,5.15
2019-02-28T00:20:13.904Z,5.37
2019-02-28T00:22:48.422Z,4.72
2019-02-28T00:25:14.472Z,5.22
2019-02-28T00:27:43.915Z,5.37
2019-02-28T00:30:13.421Z,6.12
2019-02-28T00:32:42.900Z,5.30
2019-02-28T00:35:13.500Z,5.97
2019-02-28T00:37:43.602Z,6.97
2019-02-28T00:40:13.413Z,5.37
2019-02-28T00:42:42.862Z,6.17
2019-02-28T00:45:12.575Z,5.15
2019-02-28T00:47:42.064Z,4.95
2019-02-28T00:50:11.876Z,6.55
2019-02-28T00:52:41.278Z,4.55
2019-02-28T00:55:14.389Z,5.45
2019-02-28T00:57:42.468Z,4.90
2019-02-28T01:00:12.609Z,5.03
2019-02-28T01:02:42.017Z,6.12
2019-02-28T01:05:11.729Z,5.83
2019-02-28T01:07:41.160Z,5.22
2019-02-28T01:10:11.162Z,5.35
2019-02-28T01:12:40.576Z,5.47
2019-02-28T01:15:11.725Z,4.90
2019-02-28T01:17:41.233Z,5.75
2019-02-28T01:20:14.974Z,4.30
2019-02-28T01:22:43.288Z,7.28
2019-02-28T01:25:14.200Z,6.17
2019-02-28T01:27:43.694Z,6.05
2019-02-28T01:30:13.334Z,6.42
2019-02-28T01:32:42.793Z,5.00
2019-02-28T01:35:12.644Z,5.60
2019-02-28T01:37:42.041Z,5.28
2019-02-28T01:40:11.497Z,5.95
2019-02-28T01:42:40.897Z,6.33
2019-02-28T01:45:11.019Z,5.72
2019-02-28T01:47:40.580Z,5.78
2019-02-28T01:50:10.614Z,6.03
2019-02-28T01:52:45.669Z,5.90
2019-02-28T01:55:12.735Z,8.20
2019-02-28T01:57:43.797Z,6.53
2019-02-28T02:00:14.689Z,5.97
2019-02-28T02:02:44.153Z,6.60
2019-02-28T02:05:16.922Z,7.10
2019-02-28T02:07:46.321Z,6.60
2019-02-28T02:10:21.694Z,5.90
2019-02-28T02:12:51.311Z,7.47
2019-02-28T02:15:20.936Z,7.35
2019-02-28T02:17:50.361Z,7.35
2019-02-28T02:20:19.947Z,8.45
2019-02-28T02:22:50.385Z,8.35
2019-02-28T02:25:19.880Z,8.30
2019-02-28T02:27:52.776Z,8.50
2019-02-28T02:30:21.995Z,7.42
2019-02-28T02:32:53.278Z,8.03
2019-02-28T02:35:22.770Z,10.05
2019-02-28T02:37:52.591Z,9.78
2019-02-28T02:40:24.347Z,8.95
2019-02-28T02:42:53.857Z,9.30
2019-02-28T02:45:23.324Z,9.73
2019-02-28T02:47:54.558Z,9.05
2019-02-28T02:50:23.994Z,9.60
2019-02-28T02:52:53.504Z,9.30
2019-02-28T02:55:27.928Z,9.20
2019-02-28T02:57:54.158Z,10.43
2019-02-28T03:00:25.109Z,9.28
2019-02-28T03:02:54.556Z,10.45
2019-02-28T03:05:24.007Z,10.35
2019-02-28T03:07:59.559Z,10.65
2019-02-28T03:10:24.793Z,9.58
2019-02-28T03:12:54.378Z,9.48
2019-02-28T03:15:26.837Z,8.78
2019-02-28T03:17:55.069Z,8.38
2019-02-28T03:20:26.441Z,9.90
2019-02-28T03:22:56.025Z,8.40
2019-02-28T03:25:28.295Z,10.70
2019-02-28T03:27:56.920Z,11.30
2019-02-28T03:30:30.866Z,11.25
2019-02-28T03:32:57.621Z,10.30
2019-02-28T03:35:40.172Z,10.80
2019-02-28T03:37:58.267Z,8.18
2019-02-28T03:40:28.869Z,8.95
2019-02-28T03:43:05.236Z,9.80
2019-02-28T03:45:33.835Z,9.55
2019-02-28T03:48:00.536Z,9.18
2019-02-28T03:50:30.035Z,8.95
2019-02-28T03:52:59.532Z,9.58
2019-02-28T03:55:30.111Z,9.00
2019-02-28T03:58:04.606Z,7.75
2019-02-28T04:00:34.020Z,9.20
2019-02-28T04:03:02.821Z,9.23
2019-02-28T04:05:32.462Z,8.05
2019-02-28T04:08:03.059Z,11.33
2019-02-28T04:10:32.544Z,11.28
2019-02-28T04:13:03.775Z,11.15
2019-02-28T04:15:33.253Z,13.40
2019-02-28T04:18:07.547Z,10.30
2019-02-28T04:20:37.520Z,11.57
2019-02-28T04:23:07.912Z,11.18
2019-02-28T04:25:37.422Z,9.83
2019-02-28T04:28:06.936Z,9.58
2019-02-28T04:30:42.587Z,8.63
2019-02-28T04:33:07.565Z,8.60
2019-02-28T04:35:37.045Z,8.58
2019-02-28T04:38:06.813Z,10.15
2019-02-28T04:40:36.308Z,9.83
2019-02-28T04:43:07.272Z,11.05
2019-02-28T04:45:36.959Z,12.93
2019-02-28T04:48:06.479Z,11.08
2019-02-28T04:50:37.808Z,10.40
2019-02-28T04:53:07.218Z,10.90
2019-02-28T04:55:37.307Z,10.10
2019-02-28T04:58:07.417Z,10.20
2019-02-28T05:00:37.778Z,10.23
2019-02-28T05:03:09.070Z,10.82
2019-02-28T05:05:38.584Z,12.15
2019-02-28T05:08:07.996Z,10.15
2019-02-28T05:10:37.481Z,10.10
2019-02-28T05:13:07.051Z,11.40
2019-02-28T05:15:38.515Z,10.80
2019-02-28T05:18:08.726Z,10.72
2019-02-28T05:20:38.265Z,11.68
2019-02-28T05:23:07.757Z,11.97
2019-02-28T05:25:37.256Z,10.98
2019-02-28T05:28:08.131Z,9.90
2019-02-28T05:30:37.616Z,10.53
2019-02-28T05:33:07.489Z,11.50
2019-02-28T05:35:37.131Z,11.33
2019-02-28T05:38:06.616Z,9.63
2019-02-28T05:40:40.556Z,9.75
2019-02-28T05:43:07.257Z,8.83
2019-02-28T05:45:37.661Z,10.95
2019-02-28T05:48:07.077Z,9.30
2019-02-28T05:50:36.632Z,9.93
2019-02-28T05:53:09.021Z,10.10
2019-02-28T05:55:37.268Z,9.70
2019-02-28T05:58:06.676Z,11.60
2019-02-28T06:00:37.093Z,10.35
2019-02-28T06:03:09.104Z,11.03
2019-02-28T06:05:39.063Z,12.82
2019-02-28T06:08:08.633Z,12.88
2019-02-28T06:10:39.844Z,9.98
2019-02-28T06:13:10.521Z,8.83
2019-02-28T06:15:40.021Z,11.63
2019-02-28T06:18:09.423Z,10.53
2019-02-28T06:20:38.917Z,13.53
2019-02-28T06:23:09.362Z,11.22
2019-02-28T06:25:39.591Z,13.05
2019-02-28T06:28:09.006Z,14.23
2019-02-28T06:30:41.395Z,15.65
2019-02-28T06:33:09.560Z,17.27
2019-02-28T06:35:42.591Z,18.02
2019-02-28T06:38:12.125Z,16.02
2019-02-28T06:40:42.633Z,17.90
2019-02-28T06:43:14.070Z,18.62
2019-02-28T06:45:43.255Z,19.62
2019-02-28T06:48:14.561Z,18.23
2019-02-28T06:50:44.712Z,16.95
2019-02-28T06:53:15.040Z,17.80
2019-02-28T06:55:50.690Z,20.48
2019-02-28T06:58:20.320Z,22.20
2019-02-28T07:00:51.602Z,25.00
2019-02-28T07:03:21.123Z,23.25
2019-02-28T07:05:50.600Z,26.00
2019-02-28T07:08:24.806Z,27.35
2019-02-28T07:10:52.510Z,24.43
2019-02-28T07:13:21.968Z,27.95
2019-02-28T07:15:55.462Z,25.30
2019-02-28T07:18:23.632Z,24.60
2019-02-28T07:20:53.107Z,26.25
2019-02-28T07:23:22.598Z,28.38
2019-02-28T07:25:52.479Z,31.37
2019-02-28T07:28:21.899Z,33.67
2019-02-28T07:30:51.401Z,34.25
2019-02-28T07:33:20.876Z,36.30
2019-02-28T07:35:50.280Z,33.13
2019-02-28T07:38:19.723Z,33.35
2019-02-28T07:40:49.782Z,34.92
2019-02-28T07:43:19.797Z,36.38
2019-02-28T07:45:49.285Z,35.20
2019-02-28T07:48:19.695Z,33.38
2019-02-28T07:50:49.209Z,34.65
2019-02-28T07:53:19.704Z,31.40
2019-02-28T07:55:50.944Z,34.78
2019-02-28T07:58:20.440Z,33.60
2019-02-28T08:00:52.627Z,34.18
2019-02-28T08:03:21.089Z,34.25
2019-02-28T08:05:51.668Z,32.05
2019-02-28T08:08:23.379Z,31.65
2019-02-28T08:10:52.745Z,34.85
2019-02-28T08:13:22.323Z,29.87
2019-02-28T08:15:56.231Z,29.98
2019-02-28T08:18:24.444Z,29.80
2019-02-28T08:20:53.925Z,27.87
2019-02-28T08:23:23.356Z,28.07
2019-02-28T08:25:52.860Z,27.87
2019-02-28T08:28:25.621Z,30.37
2019-02-28T08:30:56.640Z,30.92
2019-02-28T08:33:26.171Z,26.95
2019-02-28T08:35:55.708Z,32.75
2019-02-28T08:38:25.216Z,30.32
2019-02-28T08:40:54.709Z,29.60
2019-02-28T08:43:27.403Z,29.72
2019-02-28T08:45:56.491Z,32.90
2019-02-28T08:48:31.563Z,33.67
2019-02-28T08:50:57.231Z,32.50
2019-02-28T08:53:50.945Z,34.47
2019-02-28T08:56:16.942Z,29.77
2019-02-28T08:58:46.421Z,33.33
2019-02-28T09:01:16.928Z,34.43
2019-02-28T09:03:46.409Z,34.67
2019-02-28T09:06:15.925Z,34.43
2019-02-28T09:08:45.336Z,32.80
2019-02-28T09:11:14.759Z,34.87
2019-02-28T09:13:44.300Z,34.30
2019-02-28T09:16:16.272Z,36.00
2019-02-28T09:18:45.962Z,35.10
2019-02-28T09:21:18.381Z,35.27
2019-02-28T09:23:46.718Z,36.20
2019-02-28T09:26:16.335Z,34.60
2019-02-28T09:28:47.551Z,37.10
2019-02-28T09:31:17.476Z,38.17
2019-02-28T09:33:46.980Z,38.30
2019-02-28T09:36:20.253Z,40.50
2019-02-28T09:38:56.683Z,41.30
2019-02-28T09:41:19.141Z,37.93
2019-02-28T09:43:48.649Z,36.50
2019-02-28T09:46:18.797Z,32.60
2019-02-28T09:48:49.577Z,34.73
2019-02-28T09:51:20.197Z,32.10
2019-02-28T09:53:50.247Z,32.20
2019-02-28T09:56:20.401Z,30.67
2019-02-28T09:58:49.846Z,30.20
2019-02-28T10:01:21.214Z,32.73
2019-02-28T10:03:52.228Z,34.40
2019-02-28T10:06:22.925Z,35.20
2019-02-28T10:08:52.416Z,36.97
2019-02-28T10:11:21.963Z,39.30
2019-02-28T10:13:53.088Z,39.13
2019-02-28T10:16:22.670Z,37.53
2019-02-28T10:18:53.962Z,39.33
2019-02-28T10:21:25.297Z,40.60
2019-02-28T10:23:57.069Z,34.97
2019-02-28T10:26:25.924Z,38.73
2019-02-28T10:28:55.405Z,37.10
2019-02-28T10:31:36.232Z,33.90
2019-02-28T10:33:57.533Z,37.47
2019-02-28T10:36:26.936Z,37.13
2019-02-28T10:38:56.478Z,38.07
2019-02-28T10:41:27.989Z,36.17
2019-02-28T10:43:57.449Z,34.20
2019-02-28T10:46:26.896Z,32.00
2019-02-28T10:48:58.110Z,30.37
2019-02-28T10:51:27.533Z,33.00
2019-02-28T10:53:56.952Z,31.23
2019-02-28T10:56:26.364Z,28.90
2019-02-28T10:58:55.792Z,30.30
2019-02-28T11:01:25.401Z,28.03
2019-02-28T11:03:55.344Z,29.20
2019-02-28T11:06:25.354Z,31.20
2019-02-28T11:08:56.129Z,29.63
2019-02-28T11:11:25.613Z,33.23
2019-02-28T11:13:56.324Z,27.30
2019-02-28T11:16:25.796Z,27.37
2019-02-28T11:18:55.209Z,33.20
2019-02-28T11:21:25.201Z,28.57
2019-02-28T11:23:54.712Z,27.00
2019-02-28T11:26:24.241Z,26.47
2019-02-28T11:28:53.644Z,24.60
2019-02-28T11:31:23.152Z,23.63
2019-02-28T11:33:52.578Z,23.73
2019-02-28T11:36:22.037Z,27.07
2019-02-28T11:38:52.487Z,27.60
2019-02-28T11:41:22.885Z,27.60
2019-02-28T11:43:52.416Z,25.97
2019-02-28T11:46:22.037Z,29.20
2019-02-28T11:48:53.937Z,28.27
2019-02-28T11:51:22.653Z,26.87
2019-02-28T11:53:52.464Z,26.77
2019-02-28T11:56:21.976Z,27.50
2019-02-28T11:58:53.351Z,31.40
2019-02-28T12:01:22.824Z,30.17
2019-02-28T12:03:52.366Z,26.93
2019-02-28T12:06:22.364Z,29.30
2019-02-28T12:08:53.049Z,31.27
2019-02-28T12:11:25.142Z,29.53
2019-02-28T12:13:55.109Z,29.83
2019-02-28T12:16:25.480Z,28.37
2019-02-28T12:18:56.190Z,29.70
2019-02-28T12:21:25.673Z,33.40
2019-02-28T12:23:57.368Z,31.60
2019-02-28T12:26:27.921Z,30.63
2019-02-28T12:28:57.401Z,34.27
2019-02-28T12:31:26.828Z,32.60
2019-02-28T12:33:58.073Z,32.77
2019-02-28T12:36:27.731Z,32.90
2019-02-28T12:38:59.331Z,32.30
2019-02-28T12:41:30.893Z,33.37
2019-02-28T12:44:00.394Z,32.47
2019-02-28T12:46:31.787Z,33.40
2019-02-28T12:49:02.065Z,33.60
2019-02-28T12:51:31.480Z,33.43
2019-02-28T12:54:02.171Z,33.33
2019-02-28T12:56:31.608Z,35.67
2019-02-28T12:59:01.028Z,35.23
2019-02-28T13:01:33.139Z,37.93
2019-02-28T13:04:01.675Z,36.17
2019-02-28T13:06:31.212Z,36.73
2019-02-28T13:09:00.705Z,37.07
2019-02-28T13:11:30.520Z,36.70
2019-02-28T13:14:02.967Z,37.00
2019-02-28T13:16:31.144Z,39.17
2019-02-28T13:19:00.577Z,43.23
2019-02-28T13:21:31.216Z,40.40
2019-02-28T13:24:00.916Z,41.10
2019-02-28T13:26:33.484Z,41.67
2019-02-28T13:29:01.593Z,42.30
2019-02-28T13:31:32.120Z,42.53
2019-02-28T13:34:01.640Z,40.57
2019-02-28T13:36:31.131Z,42.20
2019-02-28T13:39:00.690Z,39.93
2019-02-28T13:41:30.251Z,41.40
2019-02-28T13:44:00.308Z,38.93
2019-02-28T13:46:33.890Z,42.17
2019-02-28T13:49:02.184Z,42.67
2019-02-28T13:51:32.781Z,42.70
2019-02-28T13:54:06.101Z,44.60
2019-02-28T13:56:35.573Z,42.57
2019-02-28T13:59:06.536Z,44.30
2019-02-28T14:01:39.033Z,45.20
2019-02-28T14:04:08.565Z,41.93
2019-02-28T14:06:38.161Z,41.93
2019-02-28T14:09:10.408Z,46.57
2019-02-28T14:11:41.849Z,42.47
2019-02-28T14:14:29.995Z,44.03
2019-02-28T14:17:02.062Z,48.17
2019-02-28T14:19:31.688Z,43.07
2019-02-28T14:22:01.105Z,45.07
2019-02-28T14:24:30.967Z,45.30
2019-02-28T14:27:01.256Z,45.03
2019-02-28T14:29:30.774Z,44.00
2019-02-28T14:32:01.266Z,46.90
2019-02-28T14:34:30.755Z,45.23
2019-02-28T14:37:00.355Z,44.70
2019-02-28T14:39:30.109Z,48.10
2019-02-28T14:42:03.038Z,46.97
2019-02-28T14:44:32.702Z,46.13
2019-02-28T14:47:02.348Z,46.70
2019-02-28T14:49:31.769Z,44.90
2019-02-28T14:52:03.646Z,45.40
2019-02-28T14:54:34.667Z,45.13
2019-02-28T14:57:04.176Z,46.10
2019-02-28T14:59:33.608Z,44.67
2019-02-28T15:02:03.873Z,45.43
2019-02-28T15:04:34.257Z,46.43
2019-02-28T15:07:04.396Z,43.50
2019-02-28T15:09:35.130Z,23.63
2019-02-28T15:12:04.570Z,18.00
2019-02-28T15:14:33.968Z,18.53
2019-02-28T15:17:06.969Z,17.27
2019-02-28T15:19:34.546Z,17.40
2019-02-28T15:22:04.029Z,17.37
2019-02-28T15:24:34.605Z,18.53
2019-02-28T15:27:04.351Z,17.07
2019-02-28T15:29:35.891Z,17.37
2019-02-28T15:32:05.510Z,17.37
2019-02-28T15:34:37.520Z,18.67
2019-02-28T15:37:06.278Z,18.03
2019-02-28T15:39:35.715Z,18.57
2019-02-28T15:42:05.538Z,17.23
2019-02-28T15:44:38.151Z,17.73
2019-02-28T15:47:07.756Z,18.67
2019-02-28T15:49:37.201Z,16.33
2019-02-28T15:52:06.736Z,17.53
2019-02-28T15:54:36.313Z,20.07
2019-02-28T15:57:05.803Z,19.60
2019-02-28T15:59:35.307Z,18.53
2019-02-28T16:02:06.373Z,19.43
2019-02-28T16:04:37.932Z,18.30
2019-02-28T16:07:08.740Z,20.00
2019-02-28T16:09:38.300Z,19.53
2019-02-28T16:12:07.808Z,19.10
2019-02-28T16:14:37.240Z,18.47
2019-02-28T16:17:06.713Z,19.70
2019-02-28T16:19:36.197Z,19.80
2019-02-28T16:22:05.617Z,20.20
2019-02-28T16:24:36.809Z,20.30
2019-02-28T16:27:06.198Z,17.77
2019-02-28T16:29:35.784Z,16.90
2019-02-28T16:32:05.477Z,17.10
2019-02-28T16:34:34.951Z,16.80
2019-02-28T16:37:05.901Z,16.93
2019-02-28T16:39:36.828Z,17.47
2019-02-28T16:42:08.289Z,17.50
2019-02-28T16:44:37.396Z,16.70
2019-02-28T16:47:07.061Z,16.70
2019-02-28T16:49:36.549Z,17.50
2019-02-28T16:52:06.879Z,18.40
2019-02-28T16:54:36.473Z,18.73
2019-02-28T16:57:05.880Z,17.63
2019-02-28T16:59:35.609Z,18.17
2019-02-28T17:02:07.051Z,18.77
2019-02-28T17:04:36.532Z,17.10
2019-02-28T17:07:06.403Z,15.97
2019-02-28T17:09:40.285Z,17.13
2019-02-28T17:12:37.652Z,18.50
2019-02-28T17:15:13.684Z,17.20
2019-02-28T17:17:53.128Z,18.83
2019-02-28T17:20:22.641Z,16.50
2019-02-28T17:22:52.064Z,16.43
2019-02-28T17:25:22.573Z,16.53
2019-02-28T17:27:56.983Z,17.90
2019-02-28T17:30:40.921Z,17.60
2019-02-28T17:33:10.341Z,17.60
2019-02-28T17:35:39.744Z,17.40
2019-02-28T17:38:09.330Z,16.73
2019-02-28T17:40:40.149Z,16.47
2019-02-28T17:43:09.604Z,17.57
2019-02-28T17:45:40.782Z,17.27
2019-02-28T17:48:40.341Z,16.90
2019-02-28T17:51:22.134Z,17.20
2019-02-28T17:54:40.904Z,15.20
2019-02-28T17:57:35.283Z,17.80
2019-02-28T18:00:33.621Z,14.47
2019-02-28T18:03:31.531Z,16.30
2019-02-28T18:06:33.058Z,15.47
2019-02-28T18:09:16.373Z,14.30
2019-02-28T18:12:31.569Z,13.97
2019-02-28T18:15:15.485Z,14.20
2019-02-28T18:18:32.369Z,13.83
2019-02-28T18:21:31.189Z,13.73
2019-02-28T18:24:43.900Z,12.63
2019-02-28T18:27:35.368Z,13.27
2019-02-28T18:30:48.694Z,11.10
2019-02-28T18:33:19.605Z,11.87
2019-02-28T18:35:49.280Z,12.33
2019-02-28T18:38:18.693Z,11.70
2019-02-28T18:40:48.140Z,11.37
2019-02-28T18:43:17.965Z,9.80
2019-02-28T18:45:47.732Z,11.53
2019-02-28T18:48:17.826Z,11.40
2019-02-28T18:50:49.764Z,11.33
2019-02-28T18:53:20.473Z,11.07
2019-02-28T18:55:50.083Z,11.80
2019-02-28T18:58:19.817Z,11.37
2019-02-28T19:00:49.268Z,11.07
2019-02-28T19:03:18.765Z,11.73
2019-02-28T19:05:48.230Z,11.77
2019-02-28T19:08:18.735Z,12.27
2019-02-28T19:10:48.147Z,12.90
2019-02-28T19:13:17.721Z,11.50
2019-02-28T19:15:47.137Z,11.70
2019-02-28T19:18:18.428Z,11.00
2019-02-28T19:20:47.921Z,12.27
2019-02-28T19:23:18.513Z,12.87
2019-02-28T19:25:48.928Z,13.07
2019-02-28T19:28:19.608Z,12.33
2019-02-28T19:30:49.025Z,12.10
2019-02-28T19:33:18.533Z,14.10
2019-02-28T19:35:48.036Z,13.50
2019-02-28T19:38:17.544Z,13.83
2019-02-28T19:40:48.173Z,13.83
2019-02-28T19:43:18.728Z,14.80
2019-02-28T19:45:48.418Z,13.67
2019-02-28T19:48:18.753Z,12.47
2019-02-28T19:50:48.161Z,13.70
2019-02-28T19:53:17.676Z,11.60
2019-02-28T19:55:49.003Z,13.00
2019-02-28T19:58:20.284Z,12.80
2019-02-28T20:00:52.092Z,11.40
2019-02-28T20:03:21.756Z,12.53
2019-02-28T20:05:51.386Z,12.77
2019-02-28T20:08:20.873Z,13.63
2019-02-28T20:10:51.700Z,11.63
2019-02-28T20:13:21.217Z,12.50
2019-02-28T20:15:50.839Z,12.20
2019-02-28T20:18:20.412Z,12.70
2019-02-28T20:20:49.864Z,13.00
2019-02-28T20:23:19.463Z,12.60
2019-02-28T20:25:48.961Z,12.40
2019-02-28T20:28:19.918Z,11.60
2019-02-28T20:30:49.376Z,13.20
2019-02-28T20:33:18.952Z,12.30
2019-02-28T20:35:49.464Z,11.27
2019-02-28T20:38:18.914Z,11.50
2019-02-28T20:40:48.398Z,12.17
2019-02-28T20:43:17.906Z,12.83
2019-02-28T20:45:47.416Z,13.03
2019-02-28T20:48:17.858Z,11.30
2019-02-28T20:50:47.384Z,13.67
2019-02-28T20:53:18.485Z,13.50
2019-02-28T20:55:48.068Z,12.90
2019-02-28T20:58:19.056Z,12.50
2019-02-28T21:00:48.556Z,12.27
2019-02-28T21:03:18.049Z,13.00
2019-02-28T21:05:47.460Z,12.70
2019-02-28T21:08:16.900Z,12.53
2019-02-28T21:10:48.256Z,13.77
2019-02-28T21:13:17.752Z,12.43
2019-02-28T21:15:47.262Z,12.37
2019-02-28T21:18:16.793Z,12.33
2019-02-28T21:20:46.286Z,12.90
2019-02-28T21:23:15.789Z,12.57
2019-02-28T21:25:45.382Z,13.07
2019-02-28T21:28:14.869Z,13.67
2019-02-28T21:30:44.349Z,14.10
2019-02-28T21:33:13.940Z,13.70
2019-02-28T21:35:45.013Z,13.43
2019-02-28T21:38:15.697Z,12.47
2019-02-28T21:40:45.217Z,13.97
2019-02-28T21:43:16.506Z,12.77
2019-02-28T21:45:46.068Z,12.90
2019-02-28T21:48:15.596Z,13.67
2019-02-28T21:50:46.109Z,13.03
2019-02-28T21:53:15.601Z,12.93
2019-02-28T21:55:45.084Z,13.30
2019-02-28T21:58:14.528Z,12.63
2019-02-28T22:00:45.141Z,13.13
2019-02-28T22:03:14.561Z,15.20
2019-02-28T22:05:44.065Z,14.90
2019-02-28T22:08:13.641Z,13.20
2019-02-28T22:10:43.083Z,14.23
2019-02-28T22:13:12.523Z,13.43
2019-02-28T22:15:43.141Z,13.00
2019-02-28T22:18:12.553Z,14.07
2019-02-28T22:20:42.051Z,13.87
2019-02-28T22:23:12.652Z,14.67
2019-02-28T22:25:42.182Z,15.97
2019-02-28T22:28:11.679Z,14.20
2019-02-28T22:31:00.112Z,14.23
2019-02-28T22:33:47.517Z,14.83
2019-02-28T22:36:20.165Z,16.53
2019-02-28T22:38:49.577Z,16.33
2019-02-28T22:41:19.061Z,14.77
2019-02-28T22:43:50.077Z,17.40
2019-02-28T22:46:20.711Z,15.90
2019-02-28T22:48:50.218Z,14.80
2019-02-28T22:51:19.811Z,15.50
2019-02-28T22:53:49.292Z,14.50
2019-02-28T22:56:18.809Z,14.27
2019-02-28T22:58:48.288Z,14.47
2019-02-28T23:01:20.137Z,15.60
2019-02-28T23:03:49.642Z,14.93
2019-02-28T23:06:20.231Z,14.47
2019-02-28T23:08:49.734Z,14.20
2019-02-28T23:11:20.646Z,14.50
2019-02-28T23:13:51.142Z,14.97
2019-02-28T23:16:21.589Z,14.10
2019-02-28T23:18:51.140Z,17.17
2019-02-28T23:21:20.558Z,14.73
2019-02-28T23:23:51.140Z,15.00
2019-02-28T23:26:27.676Z,16.50
2019-02-28T23:29:10.632Z,15.07
2019-02-28T23:32:21.038Z,16.40
2019-02-28T23:34:54.828Z,15.50
2019-02-28T23:37:24.258Z,18.17
2019-02-28T23:39:55.561Z,14.13
2019-02-28T23:42:25.036Z,17.10
2019-02-28T23:44:54.480Z,15.60
2019-02-28T23:47:23.887Z,16.57
2019-02-28T23:49:54.468Z,18.40
2019-02-28T23:52:23.973Z,15.87
2019-02-28T23:54:53.403Z,17.10
2019-02-28T23:57:22.877Z,16.77
2019-02-28T23:59:54.097Z,14.80
